createdAt,value
2018-03-18T00:00:14.332Z,16.10
2018-03-18T00:02:45.830Z,12.53
2018-03-18T00:05:13.878Z,14.50
2018-03-18T00:07:41.552Z,13.60
2018-03-18T00:10:09.346Z,12.80
2018-03-18T00:12:36.916Z,13.70
2018-03-18T00:15:04.622Z,11.53
2018-03-18T00:17:32.298Z,12.20
2018-03-18T00:19:59.914Z,13.33
2018-03-18T00:22:27.526Z,12.70
2018-03-18T00:24:55.134Z,12.33
2018-03-18T00:27:23.662Z,10.80
2018-03-18T00:29:51.274Z,12.23
2018-03-18T00:32:18.884Z,13.50
2018-03-18T00:34:46.467Z,11.87
2018-03-18T00:37:15.875Z,13.10
2018-03-18T00:39:43.557Z,12.70
2018-03-18T00:42:11.303Z,10.90
2018-03-18T00:44:39.036Z,13.10
2018-03-18T00:47:06.951Z,10.97
2018-03-18T00:49:35.480Z,12.87
2018-03-18T00:52:03.333Z,12.30
2018-03-18T00:54:30.976Z,12.07
2018-03-18T00:56:58.574Z,13.00
2018-03-18T00:59:26.174Z,12.17
2018-03-18T01:01:54.021Z,12.40
2018-03-18T01:04:21.978Z,11.57
2018-03-18T01:06:49.597Z,13.20
2018-03-18T01:09:17.188Z,12.00
2018-03-18T01:11:44.807Z,12.37
2018-03-18T01:14:12.588Z,11.23
2018-03-18T01:16:40.171Z,12.00
2018-03-18T01:19:08.578Z,9.97
2018-03-18T01:21:36.161Z,10.53
2018-03-18T01:24:03.740Z,13.00
2018-03-18T01:26:31.328Z,12.60
2018-03-18T01:28:58.916Z,13.10
2018-03-18T01:31:26.682Z,10.67
2018-03-18T01:33:54.292Z,11.10
2018-03-18T01:36:21.871Z,11.83
2018-03-18T01:38:49.450Z,12.17
2018-03-18T01:41:17.077Z,10.63
2018-03-18T01:43:44.653Z,10.87
2018-03-18T01:46:12.258Z,12.70
2018-03-18T01:48:39.918Z,12.47
2018-03-18T01:51:08.328Z,11.20
2018-03-18T01:53:35.908Z,11.00
2018-03-18T01:56:03.489Z,12.40
2018-03-18T01:58:31.108Z,10.40
2018-03-18T02:00:58.704Z,11.00
2018-03-18T02:03:26.296Z,12.87
2018-03-18T02:05:53.908Z,12.67
2018-03-18T02:08:21.469Z,12.50
2018-03-18T02:10:49.054Z,12.03
2018-03-18T02:13:16.653Z,10.93
2018-03-18T02:15:44.290Z,12.07
2018-03-18T02:18:11.890Z,12.03
2018-03-18T02:20:39.692Z,12.67
2018-03-18T02:23:07.596Z,10.77
2018-03-18T02:25:35.261Z,11.10
2018-03-18T02:28:02.836Z,10.87
2018-03-18T02:30:30.399Z,11.00
2018-03-18T02:32:58.065Z,11.13
2018-03-18T02:35:26.069Z,11.50
2018-03-18T02:37:53.673Z,10.83
2018-03-18T02:40:21.265Z,11.00
2018-03-18T02:42:48.922Z,10.90
2018-03-18T02:45:17.458Z,10.70
2018-03-18T02:47:45.122Z,10.50
2018-03-18T02:50:12.853Z,11.50
2018-03-18T02:52:40.463Z,10.87
2018-03-18T02:55:08.261Z,9.93
2018-03-18T02:57:35.806Z,9.60
2018-03-18T03:00:03.584Z,10.53
2018-03-18T03:02:31.129Z,8.70
2018-03-18T03:05:00.323Z,10.43
2018-03-18T03:07:30.443Z,10.47
2018-03-18T03:09:58.034Z,10.00
2018-03-18T03:12:25.664Z,9.87
2018-03-18T03:14:53.243Z,9.37
2018-03-18T03:17:23.148Z,9.63
2018-03-18T03:19:51.199Z,10.03
2018-03-18T03:22:19.250Z,10.17
2018-03-18T03:24:50.037Z,10.03
2018-03-18T03:27:17.650Z,9.37
2018-03-18T03:29:45.283Z,10.43
2018-03-18T03:32:12.867Z,9.43
2018-03-18T03:34:41.722Z,9.60
2018-03-18T03:37:09.801Z,9.63
2018-03-18T03:39:37.370Z,9.47
2018-03-18T03:42:04.884Z,20.70
2018-03-18T03:44:32.470Z,10.03
2018-03-18T03:47:00.062Z,15.60
2018-03-18T03:49:27.636Z,13.80
2018-03-18T03:51:55.235Z,15.57
2018-03-18T03:54:24.975Z,13.73
2018-03-18T03:56:52.610Z,16.83
2018-03-18T03:59:20.417Z,15.37
2018-03-18T04:01:49.684Z,11.90
2018-03-18T04:04:17.254Z,11.63
2018-03-18T04:06:44.825Z,12.00
2018-03-18T04:09:12.913Z,10.63
2018-03-18T04:11:40.480Z,11.37
2018-03-18T04:14:08.053Z,10.27
2018-03-18T04:16:35.642Z,11.20
2018-03-18T04:19:03.214Z,10.33
2018-03-18T04:21:30.850Z,12.90
2018-03-18T04:23:58.422Z,11.60
2018-03-18T04:26:25.984Z,11.40
2018-03-18T04:28:53.625Z,11.00
2018-03-18T04:31:21.177Z,12.27
2018-03-18T04:33:48.758Z,10.10
2018-03-18T04:36:16.610Z,12.30
2018-03-18T04:38:44.196Z,11.03
2018-03-18T04:41:12.508Z,12.63
2018-03-18T04:43:40.116Z,10.30
2018-03-18T04:46:07.718Z,11.60
2018-03-18T04:48:35.295Z,10.60
2018-03-18T04:51:02.874Z,11.70
2018-03-18T04:53:33.788Z,11.90
2018-03-18T04:56:01.350Z,10.87
2018-03-18T04:58:28.914Z,10.70
2018-03-18T05:00:56.485Z,11.93
2018-03-18T05:03:24.080Z,10.87
2018-03-18T05:05:51.678Z,9.70
2018-03-18T05:08:19.391Z,12.00
2018-03-18T05:10:46.975Z,10.67
2018-03-18T05:13:14.530Z,12.07
2018-03-18T05:15:42.080Z,10.70
2018-03-18T05:18:09.846Z,10.80
2018-03-18T05:20:37.449Z,10.47
2018-03-18T05:23:05.179Z,11.77
2018-03-18T05:25:32.726Z,10.50
2018-03-18T05:28:00.534Z,11.33
2018-03-18T05:30:29.367Z,12.37
2018-03-18T05:32:56.936Z,11.93
2018-03-18T05:35:24.859Z,12.90
2018-03-18T05:37:52.462Z,11.67
2018-03-18T05:40:20.211Z,11.30
2018-03-18T05:42:47.819Z,11.33
2018-03-18T05:45:15.416Z,11.27
2018-03-18T05:47:43.028Z,11.07
2018-03-18T05:50:10.664Z,10.87
2018-03-18T05:52:38.253Z,10.43
2018-03-18T05:55:05.945Z,11.60
2018-03-18T05:57:33.528Z,12.60
2018-03-18T06:00:01.112Z,10.47
2018-03-18T06:02:28.714Z,11.03
2018-03-18T06:04:56.328Z,11.73
2018-03-18T06:07:23.912Z,11.87
2018-03-18T06:09:51.502Z,13.33
2018-03-18T06:12:19.109Z,13.37
2018-03-18T06:14:46.703Z,13.67
2018-03-18T06:17:14.282Z,13.00
2018-03-18T06:19:41.856Z,11.47
2018-03-18T06:22:09.517Z,12.97
2018-03-18T06:24:37.094Z,10.53
2018-03-18T06:27:05.213Z,12.10
2018-03-18T06:29:32.845Z,10.13
2018-03-18T06:32:02.633Z,10.53
2018-03-18T06:34:30.139Z,11.13
2018-03-18T06:36:57.661Z,9.47
2018-03-18T06:39:26.123Z,9.10
2018-03-18T06:41:53.728Z,10.23
2018-03-18T06:44:21.323Z,9.90
2018-03-18T06:46:48.894Z,10.10
2018-03-18T06:49:16.483Z,10.60
2018-03-18T06:51:44.102Z,10.23
2018-03-18T06:54:11.757Z,10.40
2018-03-18T06:56:39.328Z,9.90
2018-03-18T06:59:06.905Z,10.10
2018-03-18T07:01:34.479Z,11.60
2018-03-18T07:04:03.816Z,10.93
2018-03-18T07:06:31.505Z,10.67
2018-03-18T07:09:02.117Z,9.40
2018-03-18T07:11:30.850Z,11.30
2018-03-18T07:13:59.870Z,10.47
2018-03-18T07:16:27.728Z,9.87
2018-03-18T07:18:55.551Z,10.97
2018-03-18T07:21:23.223Z,10.60
2018-03-18T07:23:50.769Z,8.87
2018-03-18T07:26:18.325Z,9.20
2018-03-18T07:28:45.909Z,10.50
2018-03-18T07:31:13.799Z,9.50
2018-03-18T07:33:42.669Z,7.10
2018-03-18T07:36:10.814Z,9.63
2018-03-18T07:38:38.627Z,11.60
2018-03-18T07:41:06.271Z,12.13
2018-03-18T07:43:34.214Z,10.60
2018-03-18T07:46:01.815Z,16.00
2018-03-18T07:48:29.370Z,10.17
2018-03-18T07:50:56.929Z,10.47
2018-03-18T07:53:24.514Z,9.53
2018-03-18T07:55:54.698Z,10.90
2018-03-18T07:58:23.590Z,10.80
2018-03-18T08:00:53.261Z,8.77
2018-03-18T08:03:21.152Z,9.67
2018-03-18T08:05:48.748Z,8.80
2018-03-18T08:08:16.339Z,9.17
2018-03-18T08:10:43.929Z,8.73
2018-03-18T08:13:12.396Z,11.10
2018-03-18T08:15:40.374Z,10.57
2018-03-18T08:18:07.984Z,9.87
2018-03-18T08:20:35.542Z,10.60
2018-03-18T08:23:03.167Z,12.20
2018-03-18T08:25:30.755Z,9.30
2018-03-18T08:27:58.413Z,10.23
2018-03-18T08:30:25.980Z,10.03
2018-03-18T08:32:53.575Z,10.87
2018-03-18T08:35:21.183Z,9.53
2018-03-18T08:37:48.826Z,8.20
2018-03-18T08:40:17.043Z,8.43
2018-03-18T08:42:44.650Z,9.00
2018-03-18T08:45:13.034Z,7.53
2018-03-18T08:47:40.607Z,9.43
2018-03-18T08:50:08.185Z,10.60
2018-03-18T08:52:36.008Z,9.00
2018-03-18T08:55:03.616Z,10.03
2018-03-18T08:57:31.165Z,9.00
2018-03-18T08:59:58.737Z,9.63
2018-03-18T09:02:26.336Z,9.17
2018-03-18T09:04:53.890Z,8.43
2018-03-18T09:07:21.488Z,8.80
2018-03-18T09:09:49.092Z,9.13
2018-03-18T09:12:16.701Z,12.13
2018-03-18T09:14:44.282Z,9.17
2018-03-18T09:17:12.270Z,9.07
2018-03-18T09:19:39.855Z,9.13
2018-03-18T09:22:07.495Z,7.30
2018-03-18T09:24:35.082Z,7.77
2018-03-18T09:27:02.895Z,8.20
2018-03-18T09:29:30.864Z,9.30
2018-03-18T09:31:58.467Z,8.40
2018-03-18T09:34:26.049Z,8.17
2018-03-18T09:36:53.636Z,8.30
2018-03-18T09:39:23.299Z,8.00
2018-03-18T09:41:51.026Z,7.50
2018-03-18T09:44:18.618Z,7.40
2018-03-18T09:46:46.213Z,10.20
2018-03-18T09:49:13.810Z,8.87
2018-03-18T09:51:41.386Z,12.70
2018-03-18T09:54:09.151Z,8.80
2018-03-18T09:56:36.766Z,8.50
2018-03-18T09:59:04.332Z,7.30
2018-03-18T10:01:31.944Z,7.23
2018-03-18T10:03:59.535Z,7.87
2018-03-18T10:06:27.128Z,8.20
2018-03-18T10:08:54.714Z,10.07
2018-03-18T10:11:22.330Z,8.53
2018-03-18T10:13:49.892Z,8.30
2018-03-18T10:16:17.508Z,8.87
2018-03-18T10:18:45.090Z,8.63
2018-03-18T10:21:13.504Z,7.30
2018-03-18T10:23:41.159Z,9.50
2018-03-18T10:26:08.863Z,9.57
2018-03-18T10:28:36.411Z,8.83
2018-03-18T10:31:04.039Z,7.60
2018-03-18T10:33:31.628Z,7.77
2018-03-18T10:35:59.182Z,8.30
2018-03-18T10:38:26.768Z,8.07
2018-03-18T10:40:57.975Z,7.97
2018-03-18T10:43:25.892Z,7.77
2018-03-18T10:45:53.501Z,6.53
2018-03-18T10:48:21.062Z,6.50
2018-03-18T10:50:48.622Z,8.97
2018-03-18T10:53:19.167Z,7.40
2018-03-18T10:55:46.678Z,7.97
2018-03-18T10:58:14.203Z,7.97
2018-03-18T11:00:43.534Z,8.73
2018-03-18T11:03:11.660Z,7.90
2018-03-18T11:05:47.942Z,7.70
2018-03-18T11:08:15.487Z,8.40
2018-03-18T11:10:42.994Z,8.30
2018-03-18T11:13:10.575Z,7.90
2018-03-18T11:18:12.118Z,9.47
2018-03-18T11:20:39.632Z,7.30
2018-03-18T11:23:07.156Z,8.10
2018-03-18T11:25:34.710Z,7.30
2018-03-18T11:28:02.260Z,9.03
2018-03-18T11:30:29.791Z,10.50
2018-03-18T11:32:57.324Z,10.33
2018-03-18T11:35:24.856Z,13.30
2018-03-18T11:37:52.387Z,6.60
2018-03-18T11:40:19.911Z,8.70
2018-03-18T11:42:47.421Z,9.63
2018-03-18T11:45:14.987Z,11.83
2018-03-18T11:47:42.512Z,9.50
2018-03-18T11:50:10.008Z,7.63
2018-03-18T11:52:37.535Z,9.60
2018-03-18T11:55:05.048Z,7.70
2018-03-18T11:57:32.556Z,7.63
2018-03-18T12:00:00.072Z,8.73
2018-03-18T12:02:27.582Z,7.53
2018-03-18T12:04:55.096Z,8.20
2018-03-18T12:07:22.603Z,7.90
2018-03-18T12:09:50.119Z,8.23
2018-03-18T12:12:17.671Z,8.00
2018-03-18T12:14:45.274Z,8.47
2018-03-18T12:17:12.775Z,9.80
2018-03-18T12:19:40.309Z,8.30
2018-03-18T12:22:07.804Z,9.50
2018-03-18T12:24:35.307Z,9.07
2018-03-18T12:27:02.918Z,9.33
2018-03-18T12:29:30.614Z,9.10
2018-03-18T12:31:58.171Z,9.20
2018-03-18T12:34:26.250Z,8.37
2018-03-18T12:36:53.843Z,8.00
2018-03-18T12:39:21.684Z,8.07
2018-03-18T12:41:49.527Z,8.53
2018-03-18T12:44:17.211Z,9.00
2018-03-18T12:46:44.791Z,9.00
2018-03-18T12:49:12.381Z,8.40
2018-03-18T12:51:39.952Z,9.67
2018-03-18T12:54:07.521Z,7.70
2018-03-18T12:56:35.106Z,8.57
2018-03-18T12:59:02.758Z,9.23
2018-03-18T13:01:30.874Z,9.27
2018-03-18T13:03:59.893Z,8.90
2018-03-18T13:06:29.225Z,8.73
2018-03-18T13:08:56.826Z,9.17
2018-03-18T13:11:24.408Z,8.23
2018-03-18T13:13:52.047Z,8.57
2018-03-18T13:16:19.642Z,10.27
2018-03-18T13:18:47.207Z,9.40
2018-03-18T13:21:14.767Z,8.83
2018-03-18T13:23:42.354Z,9.17
2018-03-18T13:26:10.127Z,9.07
2018-03-18T13:28:37.754Z,8.20
2018-03-18T13:31:05.939Z,9.57
2018-03-18T13:33:33.486Z,8.57
2018-03-18T13:36:01.111Z,9.50
2018-03-18T13:38:28.724Z,8.73
2018-03-18T13:40:56.342Z,9.10
2018-03-18T13:43:24.851Z,13.17
2018-03-18T13:45:52.485Z,18.30
2018-03-18T13:48:20.143Z,9.33
2018-03-18T13:50:47.662Z,12.40
2018-03-18T13:53:15.292Z,11.00
2018-03-18T13:55:42.949Z,8.70
2018-03-18T13:58:12.755Z,12.17
2018-03-18T14:00:40.309Z,9.53
2018-03-18T14:03:08.239Z,10.37
2018-03-18T14:05:35.936Z,9.70
2018-03-18T14:08:03.498Z,9.10
2018-03-18T14:10:31.763Z,9.87
2018-03-18T14:12:59.499Z,8.50
2018-03-18T14:15:27.153Z,9.07
2018-03-18T14:17:54.761Z,8.73
2018-03-18T14:20:22.864Z,8.47
2018-03-18T14:22:50.443Z,9.87
2018-03-18T14:25:18.053Z,9.87
2018-03-18T14:27:55.170Z,8.67
2018-03-18T14:30:22.955Z,8.23
2018-03-18T14:32:50.520Z,9.43
2018-03-18T14:35:18.545Z,9.40
2018-03-18T14:37:46.270Z,9.33
2018-03-18T14:40:14.165Z,10.63
2018-03-18T14:42:41.777Z,9.80
2018-03-18T14:45:09.623Z,9.60
2018-03-18T14:47:37.364Z,9.93
2018-03-18T14:50:04.950Z,11.53
2018-03-18T14:52:32.634Z,10.20
2018-03-18T14:55:00.582Z,9.37
2018-03-18T14:57:28.376Z,10.63
2018-03-18T14:59:56.045Z,15.97
2018-03-18T15:02:23.633Z,17.37
2018-03-18T15:04:51.608Z,18.30
2018-03-18T15:07:19.387Z,11.47
2018-03-18T15:09:47.056Z,15.53
2018-03-18T15:12:14.691Z,11.40
2018-03-18T15:14:42.295Z,10.27
2018-03-18T15:17:11.360Z,10.90
2018-03-18T15:19:39.179Z,10.57
2018-03-18T15:22:07.293Z,10.80
2018-03-18T15:24:34.933Z,12.60
2018-03-18T15:27:05.792Z,13.00
2018-03-18T15:29:37.174Z,20.10
2018-03-18T15:32:04.903Z,12.43
2018-03-18T15:34:32.525Z,11.70
2018-03-18T15:37:00.184Z,11.30
2018-03-18T15:39:27.924Z,12.57
2018-03-18T15:41:56.515Z,11.80
2018-03-18T15:44:24.313Z,10.50
2018-03-18T15:46:51.934Z,12.40
2018-03-18T15:49:20.981Z,12.03
2018-03-18T15:51:49.334Z,10.97
2018-03-18T15:54:17.371Z,11.60
2018-03-18T15:56:49.114Z,14.53
2018-03-18T15:59:24.071Z,11.50
2018-03-18T16:01:51.756Z,12.50
2018-03-18T16:04:19.602Z,11.27
2018-03-18T16:06:47.465Z,11.67
2018-03-18T16:09:15.526Z,11.00
2018-03-18T16:11:43.195Z,12.57
2018-03-18T16:14:10.861Z,12.70
2018-03-18T16:16:38.464Z,13.07
2018-03-18T16:19:06.537Z,12.70
2018-03-18T16:24:25.121Z,9.90
2018-03-18T16:26:52.719Z,7.27
2018-03-18T16:29:32.116Z,10.20
2018-03-18T16:31:59.760Z,10.77
2018-03-18T16:34:27.999Z,10.60
2018-03-18T16:36:55.650Z,12.43
2018-03-18T16:39:25.864Z,9.97
2018-03-18T16:41:53.507Z,10.03
2018-03-18T16:44:21.621Z,9.57
2018-03-18T16:46:49.374Z,10.73
2018-03-18T16:49:18.979Z,10.83
2018-03-18T16:51:46.571Z,10.00
2018-03-18T16:54:14.170Z,11.73
2018-03-18T16:56:41.765Z,13.67
2018-03-18T16:59:09.426Z,21.27
2018-03-18T17:01:37.309Z,11.30
2018-03-18T17:04:04.891Z,12.63
2018-03-18T17:06:32.518Z,10.03
2018-03-18T17:09:00.409Z,9.00
2018-03-18T17:11:29.081Z,8.70
2018-03-18T17:13:56.730Z,8.63
2018-03-18T17:16:26.136Z,11.33
2018-03-18T17:18:53.736Z,10.90
2018-03-18T17:21:22.825Z,9.47
2018-03-18T17:23:50.661Z,10.20
2018-03-18T17:26:18.305Z,16.00
2018-03-18T17:28:45.876Z,10.43
2018-03-18T17:31:15.331Z,8.50
2018-03-18T17:33:42.935Z,13.60
2018-03-18T17:36:10.824Z,8.33
2018-03-18T17:38:38.412Z,9.03
2018-03-18T17:43:39.891Z,11.10
2018-03-18T17:46:19.134Z,12.93
2018-03-18T17:48:58.569Z,7.43
2018-03-18T17:51:38.326Z,10.13
2018-03-18T17:54:17.535Z,8.47
2018-03-18T17:56:45.470Z,6.70
2018-03-18T17:59:13.168Z,10.20
2018-03-18T18:01:40.742Z,8.73
2018-03-18T18:04:08.378Z,9.27
2018-03-18T18:06:35.980Z,7.80
2018-03-18T18:09:03.971Z,7.80
2018-03-18T18:11:31.541Z,9.80
2018-03-18T18:13:59.495Z,8.77
2018-03-18T18:16:27.063Z,7.60
2018-03-18T18:18:54.621Z,8.03
2018-03-18T18:21:23.028Z,8.93
2018-03-18T18:23:50.675Z,8.90
2018-03-18T18:26:18.255Z,8.70
2018-03-18T18:28:45.838Z,9.53
2018-03-18T18:31:14.084Z,8.00
2018-03-18T18:33:41.642Z,7.17
2018-03-18T18:36:09.418Z,6.97
2018-03-18T18:38:36.973Z,6.03
2018-03-18T18:41:04.691Z,8.70
2018-03-18T18:43:39.727Z,7.27
2018-03-18T18:46:07.330Z,8.40
2018-03-18T18:48:34.865Z,8.07
2018-03-18T18:51:02.439Z,7.80
2018-03-18T18:53:30.940Z,7.43
2018-03-18T18:55:58.495Z,8.67
2018-03-18T18:58:26.090Z,8.10
2018-03-18T19:00:53.683Z,9.30
2018-03-18T19:03:21.250Z,14.47
2018-03-18T19:05:50.906Z,9.00
2018-03-18T19:08:18.555Z,7.90
2018-03-18T19:10:46.349Z,6.87
2018-03-18T19:16:05.925Z,8.00
2018-03-18T19:18:34.021Z,8.93
2018-03-18T19:21:01.588Z,8.20
2018-03-18T19:23:29.214Z,7.47
2018-03-18T19:25:56.773Z,7.77
2018-03-18T19:28:25.002Z,7.47
2018-03-18T19:30:52.568Z,8.30
2018-03-18T19:33:21.816Z,7.90
2018-03-18T19:35:49.340Z,9.70
2018-03-18T19:38:19.094Z,6.40
2018-03-18T19:40:46.614Z,7.10
2018-03-18T19:43:17.783Z,9.30
2018-03-18T19:45:45.475Z,9.37
2018-03-18T19:48:14.617Z,9.27
2018-03-18T19:50:42.232Z,9.17
2018-03-18T19:53:10.193Z,7.53
2018-03-18T19:55:37.714Z,7.90
2018-03-18T19:58:05.640Z,7.77
2018-03-18T20:00:33.250Z,8.53
2018-03-18T20:03:00.831Z,8.50
2018-03-18T20:05:28.469Z,6.10
2018-03-18T20:07:56.079Z,9.07
2018-03-18T20:10:23.631Z,8.20
2018-03-18T20:12:51.247Z,7.30
2018-03-18T20:15:18.806Z,7.50
2018-03-18T20:17:46.375Z,7.03
2018-03-18T20:20:14.028Z,8.87
2018-03-18T20:22:41.602Z,9.20
2018-03-18T20:25:09.720Z,7.67
2018-03-18T20:27:37.365Z,8.23
2018-03-18T20:30:04.953Z,8.27
2018-03-18T20:32:32.526Z,8.80
2018-03-18T20:35:00.088Z,7.43
2018-03-18T20:37:27.681Z,7.80
2018-03-18T20:39:55.251Z,7.90
2018-03-18T20:42:23.043Z,8.20
2018-03-18T20:44:50.607Z,7.67
2018-03-18T20:47:18.208Z,8.20
2018-03-18T20:49:46.298Z,8.00
2018-03-18T20:52:13.873Z,8.17
2018-03-18T20:54:41.478Z,6.73
2018-03-18T20:57:09.237Z,8.30
2018-03-18T20:59:36.840Z,7.70
2018-03-18T21:04:55.331Z,7.07
2018-03-18T21:07:22.907Z,8.30
2018-03-18T21:09:50.470Z,8.00
2018-03-18T21:12:18.045Z,8.53
2018-03-18T21:14:45.664Z,8.77
2018-03-18T21:17:13.870Z,8.43
2018-03-18T21:19:41.491Z,7.70
2018-03-18T21:22:09.053Z,6.93
2018-03-18T21:24:36.624Z,8.50
2018-03-18T21:27:05.193Z,9.20
2018-03-18T21:29:32.809Z,8.37
2018-03-18T21:32:00.412Z,9.00
2018-03-18T21:34:38.711Z,7.80
2018-03-18T21:37:06.332Z,9.40
2018-03-18T21:39:33.895Z,9.07
2018-03-18T21:42:01.481Z,10.17
2018-03-18T21:44:29.073Z,9.07
2018-03-18T21:46:57.594Z,8.37
2018-03-18T21:49:26.762Z,7.50
2018-03-18T21:51:54.566Z,7.00
2018-03-18T21:54:22.827Z,7.30
2018-03-18T21:56:50.415Z,7.20
2018-03-18T21:59:18.038Z,7.90
2018-03-18T22:01:45.628Z,7.97
2018-03-18T22:04:13.224Z,9.43
2018-03-18T22:06:40.820Z,8.17
2018-03-18T22:09:09.139Z,7.80
2018-03-18T22:11:36.968Z,7.13
2018-03-18T22:14:04.557Z,7.83
2018-03-18T22:16:32.138Z,7.47
2018-03-18T22:22:02.755Z,7.27
2018-03-18T22:24:30.336Z,7.60
2018-03-18T22:26:57.915Z,8.07
2018-03-18T22:29:25.477Z,6.70
2018-03-18T22:31:53.068Z,7.13
2018-03-18T22:34:20.626Z,9.37
2018-03-18T22:36:48.179Z,8.23
2018-03-18T22:39:15.758Z,8.83
2018-03-18T22:41:43.360Z,8.70
2018-03-18T22:44:10.960Z,11.23
2018-03-18T22:46:38.531Z,6.47
2018-03-18T22:49:06.125Z,8.50
2018-03-18T22:51:33.708Z,7.83
2018-03-18T22:54:01.267Z,8.43
2018-03-18T22:56:28.859Z,9.43
2018-03-18T22:58:56.456Z,7.30
2018-03-18T23:01:24.071Z,9.70
2018-03-18T23:03:52.018Z,6.90
2018-03-18T23:06:19.587Z,6.00
2018-03-18T23:08:47.171Z,6.90
2018-03-18T23:11:14.742Z,7.60
2018-03-18T23:13:42.545Z,7.33
2018-03-18T23:16:10.129Z,8.10
2018-03-18T23:18:37.744Z,10.33
2018-03-18T23:21:05.344Z,7.93
2018-03-18T23:23:32.906Z,6.50
2018-03-18T23:26:00.471Z,6.23
2018-03-18T23:28:28.034Z,6.70
2018-03-18T23:30:55.637Z,7.30
2018-03-18T23:33:23.215Z,7.90
2018-03-18T23:35:50.828Z,8.07
2018-03-18T23:38:19.241Z,7.60
2018-03-18T23:40:46.830Z,7.43
2018-03-18T23:43:14.459Z,6.60
2018-03-18T23:45:42.051Z,7.97
2018-03-18T23:48:09.645Z,6.93
2018-03-18T23:50:37.253Z,7.00
2018-03-18T23:53:04.864Z,6.50
2018-03-18T23:55:32.436Z,7.40
2018-03-18T23:58:00.018Z,7.57
